< < Back
Terminal Aerodrome Forecast


Current Version              Previous Versions:   1  2  3  4  5  6  7  8  9  

Terminal Aerodrome Forecast

094
FTUS42 KCAE 252000 AAC
TAFAGS
TAF AMD
KAGS 252033Z 2521/2618 12005KT P6SM BKN040
     FM260000 00000KT P6SM SCT060
      TEMPO 2609/2611 3SM BR SKC
     FM261500 25005KT P6SM SKC=



Latest METAR

810
SAUS70 KWBC 252300 RRE
MTRAGS
METAR KAGS 252253Z 31012G24KT 2SM RA FEW032 BKN047 BKN065 27/22 A2996
RMK AO2 LTG DSNT S AND SW RAB2157E25B49 SLP144 P0016
T02670217


USA.gov is the U.S. government's official web portal to all federal, state and local government web resources and services.